sensor_id;sensor_type;location;lat;lon;timestamp;temperature;humidity
9193;DHT22;4631;49.296;10.560;2023-09-07T00:01:47;16.50;99.90
9193;DHT22;4631;49.296;10.560;2023-09-07T00:04:14;16.40;99.90
9193;DHT22;4631;49.296;10.560;2023-09-07T00:06:40;16.40;99.90
9193;DHT22;4631;49.296;10.560;2023-09-07T00:09:08;16.40;99.90
9193;DHT22;4631;49.296;10.560;2023-09-07T00:11:34;16.30;99.90
9193;DHT22;4631;49.296;10.560;2023-09-07T00:14:02;16.30;99.90
9193;DHT22;4631;49.296;10.560;2023-09-07T00:16:30;16.20;99.90
9193;DHT22;4631;49.296;10.560;2023-09-07T00:18:59;16.20;99.90
9193;DHT22;4631;49.296;10.560;2023-09-07T00:21:26;16.20;99.90
9193;DHT22;4631;49.296;10.560;2023-09-07T00:23:52;16.10;99.90
9193;DHT22;4631;49.296;10.560;2023-09-07T00:26:20;16.10;99.90
9193;DHT22;4631;49.296;10.560;2023-09-07T00:28:47;16.10;99.90
9193;DHT22;4631;49.296;10.560;2023-09-07T00:31:14;16.00;99.90
9193;DHT22;4631;49.296;10.560;2023-09-07T00:33:41;16.00;99.90
9193;DHT22;4631;49.296;10.560;2023-09-07T00:36:08;15.90;99.90
9193;DHT22;4631;49.296;10.560;2023-09-07T00:38:34;15.90;99.90
9193;DHT22;4631;49.296;10.560;2023-09-07T00:41:01;15.90;99.90
9193;DHT22;4631;49.296;10.560;2023-09-07T00:43:27;15.80;99.90
9193;DHT22;4631;49.296;10.560;2023-09-07T00:45:55;15.80;99.90
9193;DHT22;4631;49.296;10.560;2023-09-07T00:48:23;15.80;99.90
9193;DHT22;4631;49.296;10.560;2023-09-07T00:50:49;15.80;99.90
9193;DHT22;4631;49.296;10.560;2023-09-07T00:53:16;15.80;99.90
9193;DHT22;4631;49.296;10.560;2023-09-07T00:55:43;15.80;99.90
9193;DHT22;4631;49.296;10.560;2023-09-07T00:58:10;15.70;99.90
9193;DHT22;4631;49.296;10.560;2023-09-07T01:00:37;15.70;99.90
9193;DHT22;4631;49.296;10.560;2023-09-07T01:03:04;15.70;99.90
9193;DHT22;4631;49.296;10.560;2023-09-07T01:05:34;15.70;99.90
9193;DHT22;4631;49.296;10.560;2023-09-07T01:08:03;15.60;99.90
9193;DHT22;4631;49.296;10.560;2023-09-07T01:10:34;15.60;99.90
9193;DHT22;4631;49.296;10.560;2023-09-07T01:13:00;15.60;99.90
9193;DHT22;4631;49.296;10.560;2023-09-07T01:15:27;15.50;99.90
9193;DHT22;4631;49.296;10.560;2023-09-07T01:17:54;15.50;99.90
9193;DHT22;4631;49.296;10.560;2023-09-07T01:20:21;15.50;99.90
9193;DHT22;4631;49.296;10.560;2023-09-07T01:22:50;15.40;99.90
9193;DHT22;4631;49.296;10.560;2023-09-07T01:25:17;15.40;99.90
9193;DHT22;4631;49.296;10.560;2023-09-07T01:27:44;15.40;99.90
9193;DHT22;4631;49.296;10.560;2023-09-07T01:30:11;15.30;99.90
9193;DHT22;4631;49.296;10.560;2023-09-07T01:32:38;15.30;99.90
9193;DHT22;4631;49.296;10.560;2023-09-07T01:35:05;15.30;99.90
9193;DHT22;4631;49.296;10.560;2023-09-07T01:37:34;15.20;99.90
9193;DHT22;4631;49.296;10.560;2023-09-07T01:40:02;15.20;99.90
9193;DHT22;4631;49.296;10.560;2023-09-07T01:42:32;15.20;99.90
9193;DHT22;4631;49.296;10.560;2023-09-07T01:44:59;15.20;99.90
9193;DHT22;4631;49.296;10.560;2023-09-07T01:47:25;15.20;99.90
9193;DHT22;4631;49.296;10.560;2023-09-07T01:49:52;15.10;99.90
9193;DHT22;4631;49.296;10.560;2023-09-07T01:52:19;15.10;99.90
9193;DHT22;4631;49.296;10.560;2023-09-07T01:54:45;15.00;99.90
9193;DHT22;4631;49.296;10.560;2023-09-07T01:57:13;15.00;99.90
9193;DHT22;4631;49.296;10.560;2023-09-07T01:59:40;15.00;99.90
9193;DHT22;4631;49.296;10.560;2023-09-07T02:02:06;15.00;99.90
9193;DHT22;4631;49.296;10.560;2023-09-07T02:04:33;14.90;99.90
9193;DHT22;4631;49.296;10.560;2023-09-07T02:06:59;14.80;99.90
9193;DHT22;4631;49.296;10.560;2023-09-07T02:09:26;14.80;99.90
9193;DHT22;4631;49.296;10.560;2023-09-07T02:11:52;14.70;99.90
9193;DHT22;4631;49.296;10.560;2023-09-07T02:14:20;14.70;99.90
9193;DHT22;4631;49.296;10.560;2023-09-07T02:16:47;14.60;99.90
9193;DHT22;4631;49.296;10.560;2023-09-07T02:19:14;14.60;99.90
9193;DHT22;4631;49.296;10.560;2023-09-07T02:21:40;14.60;99.90
9193;DHT22;4631;49.296;10.560;2023-09-07T02:24:07;14.60;99.90
9193;DHT22;4631;49.296;10.560;2023-09-07T02:26:34;14.50;99.90
9193;DHT22;4631;49.296;10.560;2023-09-07T02:29:00;14.50;99.90
9193;DHT22;4631;49.296;10.560;2023-09-07T02:31:32;14.50;99.90
9193;DHT22;4631;49.296;10.560;2023-09-07T02:33:58;14.50;99.90
9193;DHT22;4631;49.296;10.560;2023-09-07T02:36:25;14.40;99.90
9193;DHT22;4631;49.296;10.560;2023-09-07T02:38:51;14.40;99.90
9193;DHT22;4631;49.296;10.560;2023-09-07T02:41:18;14.30;99.90
9193;DHT22;4631;49.296;10.560;2023-09-07T02:43:44;14.30;99.90
9193;DHT22;4631;49.296;10.560;2023-09-07T02:46:11;14.30;99.90
9193;DHT22;4631;49.296;10.560;2023-09-07T02:48:39;14.30;99.90
9193;DHT22;4631;49.296;10.560;2023-09-07T02:51:05;14.20;99.90
9193;DHT22;4631;49.296;10.560;2023-09-07T02:53:32;14.20;99.90
9193;DHT22;4631;49.296;10.560;2023-09-07T02:55:59;14.20;99.90
9193;DHT22;4631;49.296;10.560;2023-09-07T02:58:27;14.20;99.90
9193;DHT22;4631;49.296;10.560;2023-09-07T03:00:53;14.10;99.90
9193;DHT22;4631;49.296;10.560;2023-09-07T03:03:20;14.10;99.90
9193;DHT22;4631;49.296;10.560;2023-09-07T03:05:48;14.00;99.90
9193;DHT22;4631;49.296;10.560;2023-09-07T03:08:15;14.00;99.90
9193;DHT22;4631;49.296;10.560;2023-09-07T03:10:42;14.00;99.90
9193;DHT22;4631;49.296;10.560;2023-09-07T03:13:09;14.00;99.90
9193;DHT22;4631;49.296;10.560;2023-09-07T03:15:44;14.00;99.90
9193;DHT22;4631;49.296;10.560;2023-09-07T03:18:10;13.90;99.90
9193;DHT22;4631;49.296;10.560;2023-09-07T03:20:37;13.80;99.90
9193;DHT22;4631;49.296;10.560;2023-09-07T03:23:05;13.80;99.90
9193;DHT22;4631;49.296;10.560;2023-09-07T03:25:32;13.80;99.90
9193;DHT22;4631;49.296;10.560;2023-09-07T03:27:58;13.70;99.90
9193;DHT22;4631;49.296;10.560;2023-09-07T03:30:25;13.80;99.90
9193;DHT22;4631;49.296;10.560;2023-09-07T03:32:51;13.70;99.90
9193;DHT22;4631;49.296;10.560;2023-09-07T03:35:18;13.80;99.90
9193;DHT22;4631;49.296;10.560;2023-09-07T03:37:45;13.70;99.90
9193;DHT22;4631;49.296;10.560;2023-09-07T03:40:13;13.70;99.90
9193;DHT22;4631;49.296;10.560;2023-09-07T03:42:40;13.70;99.90
9193;DHT22;4631;49.296;10.560;2023-09-07T03:45:07;13.60;99.90
9193;DHT22;4631;49.296;10.560;2023-09-07T03:47:34;13.60;99.90
9193;DHT22;4631;49.296;10.560;2023-09-07T03:50:01;13.50;99.90
9193;DHT22;4631;49.296;10.560;2023-09-07T03:52:28;13.50;99.90
9193;DHT22;4631;49.296;10.560;2023-09-07T03:54:55;13.50;99.90
9193;DHT22;4631;49.296;10.560;2023-09-07T03:57:23;13.50;99.90
9193;DHT22;4631;49.296;10.560;2023-09-07T03:59:50;13.40;99.90
9193;DHT22;4631;49.296;10.560;2023-09-07T04:02:17;13.40;99.90
9193;DHT22;4631;49.296;10.560;2023-09-07T04:04:46;13.30;99.90
9193;DHT22;4631;49.296;10.560;2023-09-07T04:07:14;13.40;99.90
9193;DHT22;4631;49.296;10.560;2023-09-07T04:09:40;13.30;99.90
9193;DHT22;4631;49.296;10.560;2023-09-07T04:12:07;13.30;99.90
9193;DHT22;4631;49.296;10.560;2023-09-07T04:14:35;13.30;99.90
9193;DHT22;4631;49.296;10.560;2023-09-07T04:17:02;13.30;99.90
9193;DHT22;4631;49.296;10.560;2023-09-07T04:19:28;13.30;99.90
9193;DHT22;4631;49.296;10.560;2023-09-07T04:21:56;13.30;99.90
9193;DHT22;4631;49.296;10.560;2023-09-07T04:24:22;13.20;99.90
9193;DHT22;4631;49.296;10.560;2023-09-07T04:26:49;13.20;99.90
9193;DHT22;4631;49.296;10.560;2023-09-07T04:29:16;13.20;99.90
9193;DHT22;4631;49.296;10.560;2023-09-07T04:31:44;13.20;99.90
9193;DHT22;4631;49.296;10.560;2023-09-07T04:34:10;13.10;99.90
9193;DHT22;4631;49.296;10.560;2023-09-07T04:36:37;13.10;99.90
9193;DHT22;4631;49.296;10.560;2023-09-07T04:39:03;13.10;99.90
9193;DHT22;4631;49.296;10.560;2023-09-07T04:41:30;13.10;99.90
9193;DHT22;4631;49.296;10.560;2023-09-07T04:43:57;13.00;99.90
9193;DHT22;4631;49.296;10.560;2023-09-07T04:46:23;13.10;99.90
9193;DHT22;4631;49.296;10.560;2023-09-07T04:48:51;13.00;99.90
9193;DHT22;4631;49.296;10.560;2023-09-07T04:51:19;13.10;99.90
9193;DHT22;4631;49.296;10.560;2023-09-07T04:53:47;13.00;99.90
9193;DHT22;4631;49.296;10.560;2023-09-07T04:56:13;13.00;99.90
9193;DHT22;4631;49.296;10.560;2023-09-07T04:58:41;13.00;99.90
9193;DHT22;4631;49.296;10.560;2023-09-07T05:01:09;13.00;99.90
9193;DHT22;4631;49.296;10.560;2023-09-07T05:03:36;12.90;99.90
9193;DHT22;4631;49.296;10.560;2023-09-07T05:06:04;12.90;99.90
9193;DHT22;4631;49.296;10.560;2023-09-07T05:08:31;12.90;99.90
9193;DHT22;4631;49.296;10.560;2023-09-07T05:10:58;12.90;99.90
9193;DHT22;4631;49.296;10.560;2023-09-07T05:13:25;12.90;99.90
9193;DHT22;4631;49.296;10.560;2023-09-07T05:15:52;12.80;99.90
9193;DHT22;4631;49.296;10.560;2023-09-07T05:18:19;12.90;99.90
9193;DHT22;4631;49.296;10.560;2023-09-07T05:20:46;12.80;99.90
9193;DHT22;4631;49.296;10.560;2023-09-07T05:23:15;12.90;99.90
9193;DHT22;4631;49.296;10.560;2023-09-07T05:25:43;12.90;99.90
9193;DHT22;4631;49.296;10.560;2023-09-07T05:28:10;12.80;99.90
9193;DHT22;4631;49.296;10.560;2023-09-07T05:30:37;12.90;99.90
9193;DHT22;4631;49.296;10.560;2023-09-07T05:33:04;12.90;99.90
9193;DHT22;4631;49.296;10.560;2023-09-07T05:35:30;12.80;99.90
9193;DHT22;4631;49.296;10.560;2023-09-07T05:37:58;12.80;99.90
9193;DHT22;4631;49.296;10.560;2023-09-07T05:40:26;12.80;99.90
9193;DHT22;4631;49.296;10.560;2023-09-07T05:42:55;12.80;99.90
9193;DHT22;4631;49.296;10.560;2023-09-07T05:45:25;12.80;99.90
9193;DHT22;4631;49.296;10.560;2023-09-07T05:47:52;12.80;99.90
9193;DHT22;4631;49.296;10.560;2023-09-07T05:50:18;12.80;99.90
9193;DHT22;4631;49.296;10.560;2023-09-07T05:52:45;12.80;99.90
9193;DHT22;4631;49.296;10.560;2023-09-07T05:57:45;12.90;99.90
9193;DHT22;4631;49.296;10.560;2023-09-07T06:00:13;12.90;99.90
9193;DHT22;4631;49.296;10.560;2023-09-07T06:02:40;12.90;99.90
9193;DHT22;4631;49.296;10.560;2023-09-07T06:05:07;13.00;99.90
9193;DHT22;4631;49.296;10.560;2023-09-07T06:07:35;13.00;99.90
9193;DHT22;4631;49.296;10.560;2023-09-07T06:10:01;13.10;99.90
9193;DHT22;4631;49.296;10.560;2023-09-07T06:12:28;13.10;99.90
9193;DHT22;4631;49.296;10.560;2023-09-07T06:14:56;13.10;99.90
9193;DHT22;4631;49.296;10.560;2023-09-07T06:17:22;13.20;99.90
9193;DHT22;4631;49.296;10.560;2023-09-07T06:19:49;13.30;99.90
9193;DHT22;4631;49.296;10.560;2023-09-07T06:22:15;13.30;99.90
9193;DHT22;4631;49.296;10.560;2023-09-07T06:24:42;13.40;99.90
9193;DHT22;4631;49.296;10.560;2023-09-07T06:27:09;13.50;99.90
9193;DHT22;4631;49.296;10.560;2023-09-07T06:29:35;13.50;99.90
9193;DHT22;4631;49.296;10.560;2023-09-07T06:32:09;13.60;99.90
9193;DHT22;4631;49.296;10.560;2023-09-07T06:34:36;13.70;99.90
9193;DHT22;4631;49.296;10.560;2023-09-07T06:37:03;13.80;99.90
9193;DHT22;4631;49.296;10.560;2023-09-07T06:39:29;13.90;99.90
9193;DHT22;4631;49.296;10.560;2023-09-07T06:41:56;14.00;99.90
9193;DHT22;4631;49.296;10.560;2023-09-07T06:44:22;14.10;99.90
9193;DHT22;4631;49.296;10.560;2023-09-07T06:46:49;14.20;99.90
9193;DHT22;4631;49.296;10.560;2023-09-07T06:51:50;14.40;99.90
9193;DHT22;4631;49.296;10.560;2023-09-07T06:54:16;14.50;99.90
9193;DHT22;4631;49.296;10.560;2023-09-07T06:56:43;14.60;99.90
9193;DHT22;4631;49.296;10.560;2023-09-07T06:59:09;14.70;99.90
9193;DHT22;4631;49.296;10.560;2023-09-07T07:01:36;14.80;99.90
9193;DHT22;4631;49.296;10.560;2023-09-07T07:04:03;14.90;99.90
9193;DHT22;4631;49.296;10.560;2023-09-07T07:06:29;15.00;99.90
9193;DHT22;4631;49.296;10.560;2023-09-07T07:08:57;15.10;99.90
9193;DHT22;4631;49.296;10.560;2023-09-07T07:11:24;15.20;99.90
9193;DHT22;4631;49.296;10.560;2023-09-07T07:13:51;15.30;99.90
9193;DHT22;4631;49.296;10.560;2023-09-07T07:16:18;15.50;99.90
9193;DHT22;4631;49.296;10.560;2023-09-07T07:18:53;15.60;99.90
9193;DHT22;4631;49.296;10.560;2023-09-07T07:21:20;15.80;99.90
9193;DHT22;4631;49.296;10.560;2023-09-07T07:23:46;16.00;99.90
9193;DHT22;4631;49.296;10.560;2023-09-07T07:26:14;16.10;99.90
9193;DHT22;4631;49.296;10.560;2023-09-07T07:28:41;16.30;99.90
9193;DHT22;4631;49.296;10.560;2023-09-07T07:31:08;16.50;99.90
9193;DHT22;4631;49.296;10.560;2023-09-07T07:33:35;16.60;99.90
9193;DHT22;4631;49.296;10.560;2023-09-07T07:36:02;16.70;99.90
9193;DHT22;4631;49.296;10.560;2023-09-07T07:38:29;16.80;99.90
9193;DHT22;4631;49.296;10.560;2023-09-07T07:40:55;16.90;99.90
9193;DHT22;4631;49.296;10.560;2023-09-07T07:43:23;17.00;99.90
9193;DHT22;4631;49.296;10.560;2023-09-07T07:45:51;17.10;99.90
9193;DHT22;4631;49.296;10.560;2023-09-07T07:48:20;17.20;99.90
9193;DHT22;4631;49.296;10.560;2023-09-07T07:50:47;17.30;99.90
9193;DHT22;4631;49.296;10.560;2023-09-07T07:53:13;17.30;99.90
9193;DHT22;4631;49.296;10.560;2023-09-07T07:55:41;17.40;99.90
9193;DHT22;4631;49.296;10.560;2023-09-07T07:58:07;17.50;99.90
9193;DHT22;4631;49.296;10.560;2023-09-07T08:00:36;17.50;99.90
9193;DHT22;4631;49.296;10.560;2023-09-07T08:03:02;17.60;99.90
9193;DHT22;4631;49.296;10.560;2023-09-07T08:05:31;17.60;99.90
9193;DHT22;4631;49.296;10.560;2023-09-07T08:07:58;17.80;99.90
9193;DHT22;4631;49.296;10.560;2023-09-07T08:10:25;17.90;99.90
9193;DHT22;4631;49.296;10.560;2023-09-07T08:12:53;18.00;99.90
9193;DHT22;4631;49.296;10.560;2023-09-07T08:15:25;18.10;99.90
9193;DHT22;4631;49.296;10.560;2023-09-07T08:17:56;18.10;99.90
9193;DHT22;4631;49.296;10.560;2023-09-07T08:20:24;18.30;99.90
9193;DHT22;4631;49.296;10.560;2023-09-07T08:22:51;18.40;99.90
9193;DHT22;4631;49.296;10.560;2023-09-07T08:25:18;18.50;99.90
9193;DHT22;4631;49.296;10.560;2023-09-07T08:27:45;18.70;99.90
9193;DHT22;4631;49.296;10.560;2023-09-07T08:30:14;18.80;99.90
9193;DHT22;4631;49.296;10.560;2023-09-07T08:32:41;18.90;99.90
9193;DHT22;4631;49.296;10.560;2023-09-07T08:35:09;18.90;99.90
9193;DHT22;4631;49.296;10.560;2023-09-07T08:37:38;19.10;99.90
9193;DHT22;4631;49.296;10.560;2023-09-07T08:40:05;19.20;99.90
9193;DHT22;4631;49.296;10.560;2023-09-07T08:42:34;19.20;99.90
9193;DHT22;4631;49.296;10.560;2023-09-07T08:45:02;19.30;99.90
9193;DHT22;4631;49.296;10.560;2023-09-07T08:47:32;19.40;99.90
9193;DHT22;4631;49.296;10.560;2023-09-07T08:49:59;19.50;99.90
9193;DHT22;4631;49.296;10.560;2023-09-07T08:52:27;19.60;99.90
9193;DHT22;4631;49.296;10.560;2023-09-07T08:54:55;19.80;99.90
9193;DHT22;4631;49.296;10.560;2023-09-07T08:57:24;19.90;99.90
9193;DHT22;4631;49.296;10.560;2023-09-07T08:59:50;20.00;99.90
9193;DHT22;4631;49.296;10.560;2023-09-07T09:02:17;20.00;99.90
9193;DHT22;4631;49.296;10.560;2023-09-07T09:04:44;20.10;99.90
9193;DHT22;4631;49.296;10.560;2023-09-07T09:12:15;20.50;99.90
9193;DHT22;4631;49.296;10.560;2023-09-07T09:14:42;20.60;99.90
9193;DHT22;4631;49.296;10.560;2023-09-07T09:22:13;21.00;99.90
9193;DHT22;4631;49.296;10.560;2023-09-07T09:24:39;21.10;99.90
9193;DHT22;4631;49.296;10.560;2023-09-07T09:27:06;21.20;99.90
9193;DHT22;4631;49.296;10.560;2023-09-07T09:29:35;21.30;99.90
9193;DHT22;4631;49.296;10.560;2023-09-07T09:32:03;21.40;99.90
9193;DHT22;4631;49.296;10.560;2023-09-07T09:34:31;21.40;99.90
9193;DHT22;4631;49.296;10.560;2023-09-07T09:36:58;21.50;99.90
9193;DHT22;4631;49.296;10.560;2023-09-07T09:39:25;21.60;99.90
9193;DHT22;4631;49.296;10.560;2023-09-07T09:41:52;21.80;99.90
9193;DHT22;4631;49.296;10.560;2023-09-07T09:44:21;21.90;99.90
9193;DHT22;4631;49.296;10.560;2023-09-07T09:46:52;21.90;99.90
9193;DHT22;4631;49.296;10.560;2023-09-07T09:49:20;22.00;99.90
9193;DHT22;4631;49.296;10.560;2023-09-07T09:51:48;22.00;99.90
9193;DHT22;4631;49.296;10.560;2023-09-07T09:54:15;22.20;99.90
9193;DHT22;4631;49.296;10.560;2023-09-07T09:56:42;22.20;99.90
9193;DHT22;4631;49.296;10.560;2023-09-07T09:59:08;22.40;99.90
9193;DHT22;4631;49.296;10.560;2023-09-07T10:03:15;22.50;99.90
9193;DHT22;4631;49.296;10.560;2023-09-07T10:04:46;22.60;99.90
9193;DHT22;4631;49.296;10.560;2023-09-07T10:07:13;22.70;99.90
9193;DHT22;4631;49.296;10.560;2023-09-07T10:09:58;22.90;99.90
9193;DHT22;4631;49.296;10.560;2023-09-07T10:12:27;23.00;99.90
9193;DHT22;4631;49.296;10.560;2023-09-07T10:14:53;23.10;99.90
9193;DHT22;4631;49.296;10.560;2023-09-07T10:17:21;23.20;99.90
9193;DHT22;4631;49.296;10.560;2023-09-07T10:20:06;23.20;99.90
9193;DHT22;4631;49.296;10.560;2023-09-07T10:22:36;23.40;99.90
9193;DHT22;4631;49.296;10.560;2023-09-07T10:25:03;23.40;99.90
9193;DHT22;4631;49.296;10.560;2023-09-07T10:27:41;23.50;99.90
9193;DHT22;4631;49.296;10.560;2023-09-07T10:30:09;23.60;99.90
9193;DHT22;4631;49.296;10.560;2023-09-07T10:32:39;23.70;99.90
9193;DHT22;4631;49.296;10.560;2023-09-07T10:35:13;23.70;99.90
9193;DHT22;4631;49.296;10.560;2023-09-07T10:37:40;23.80;99.90
9193;DHT22;4631;49.296;10.560;2023-09-07T10:40:07;23.90;99.90
9193;DHT22;4631;49.296;10.560;2023-09-07T10:42:37;23.90;99.90
9193;DHT22;4631;49.296;10.560;2023-09-07T10:45:10;24.00;99.90
9193;DHT22;4631;49.296;10.560;2023-09-07T10:47:41;24.10;99.90
9193;DHT22;4631;49.296;10.560;2023-09-07T10:50:09;24.20;99.90
9193;DHT22;4631;49.296;10.560;2023-09-07T10:52:37;24.40;99.90
9193;DHT22;4631;49.296;10.560;2023-09-07T10:55:05;24.50;99.90
9193;DHT22;4631;49.296;10.560;2023-09-07T10:57:32;24.70;99.90
9193;DHT22;4631;49.296;10.560;2023-09-07T10:59:58;24.80;99.90
9193;DHT22;4631;49.296;10.560;2023-09-07T11:02:25;25.00;99.90
9193;DHT22;4631;49.296;10.560;2023-09-07T11:04:52;25.10;99.90
9193;DHT22;4631;49.296;10.560;2023-09-07T11:07:19;25.20;99.90
9193;DHT22;4631;49.296;10.560;2023-09-07T11:09:47;25.30;99.90
9193;DHT22;4631;49.296;10.560;2023-09-07T11:12:19;25.40;99.90
9193;DHT22;4631;49.296;10.560;2023-09-07T11:14:46;25.50;99.90
9193;DHT22;4631;49.296;10.560;2023-09-07T11:17:13;25.70;99.90
9193;DHT22;4631;49.296;10.560;2023-09-07T11:19:40;25.80;99.90
9193;DHT22;4631;49.296;10.560;2023-09-07T11:22:09;25.90;99.90
9193;DHT22;4631;49.296;10.560;2023-09-07T11:24:35;26.00;99.90
9193;DHT22;4631;49.296;10.560;2023-09-07T11:27:04;26.20;99.90
9193;DHT22;4631;49.296;10.560;2023-09-07T11:29:31;26.30;99.90
9193;DHT22;4631;49.296;10.560;2023-09-07T11:32:05;26.40;99.90
9193;DHT22;4631;49.296;10.560;2023-09-07T11:34:32;26.50;99.90
9193;DHT22;4631;49.296;10.560;2023-09-07T11:36:58;26.70;99.90
9193;DHT22;4631;49.296;10.560;2023-09-07T11:39:25;26.80;99.90
9193;DHT22;4631;49.296;10.560;2023-09-07T11:41:51;26.90;99.90
9193;DHT22;4631;49.296;10.560;2023-09-07T11:44:20;26.90;99.90
9193;DHT22;4631;49.296;10.560;2023-09-07T11:46:46;27.00;99.90
9193;DHT22;4631;49.296;10.560;2023-09-07T11:49:13;27.10;99.90
9193;DHT22;4631;49.296;10.560;2023-09-07T11:51:40;27.20;99.90
9193;DHT22;4631;49.296;10.560;2023-09-07T11:54:06;27.30;99.90
9193;DHT22;4631;49.296;10.560;2023-09-07T11:56:33;27.40;99.90
9193;DHT22;4631;49.296;10.560;2023-09-07T11:59:04;27.60;99.90
9193;DHT22;4631;49.296;10.560;2023-09-07T12:01:32;27.70;99.90
9193;DHT22;4631;49.296;10.560;2023-09-07T12:03:59;27.90;99.90
9193;DHT22;4631;49.296;10.560;2023-09-07T12:06:26;27.90;99.90
9193;DHT22;4631;49.296;10.560;2023-09-07T12:08:58;27.90;99.90
9193;DHT22;4631;49.296;10.560;2023-09-07T12:11:25;27.80;99.90
9193;DHT22;4631;49.296;10.560;2023-09-07T12:13:52;28.00;99.90
9193;DHT22;4631;49.296;10.560;2023-09-07T12:16:19;28.10;99.90
9193;DHT22;4631;49.296;10.560;2023-09-07T12:18:46;28.30;99.90
9193;DHT22;4631;49.296;10.560;2023-09-07T12:21:13;28.40;99.90
9193;DHT22;4631;49.296;10.560;2023-09-07T12:23:40;28.60;99.90
9193;DHT22;4631;49.296;10.560;2023-09-07T12:26:06;28.70;99.90
9193;DHT22;4631;49.296;10.560;2023-09-07T12:28:34;28.80;99.90
9193;DHT22;4631;49.296;10.560;2023-09-07T12:31:01;28.90;99.90
9193;DHT22;4631;49.296;10.560;2023-09-07T12:33:28;29.10;99.90
9193;DHT22;4631;49.296;10.560;2023-09-07T12:35:57;29.20;99.90
9193;DHT22;4631;49.296;10.560;2023-09-07T12:38:23;29.20;99.90
9193;DHT22;4631;49.296;10.560;2023-09-07T12:40:53;29.10;99.90
9193;DHT22;4631;49.296;10.560;2023-09-07T12:43:20;29.00;98.90
9193;DHT22;4631;49.296;10.560;2023-09-07T12:45:46;28.90;97.70
9193;DHT22;4631;49.296;10.560;2023-09-07T12:48:13;28.80;97.00
9193;DHT22;4631;49.296;10.560;2023-09-07T12:50:41;28.90;95.50
9193;DHT22;4631;49.296;10.560;2023-09-07T12:53:09;28.90;97.70
9193;DHT22;4631;49.296;10.560;2023-09-07T12:55:36;28.90;95.80
9193;DHT22;4631;49.296;10.560;2023-09-07T12:58:03;29.10;96.90
9193;DHT22;4631;49.296;10.560;2023-09-07T13:00:29;29.30;96.70
9193;DHT22;4631;49.296;10.560;2023-09-07T13:02:56;29.40;95.20
9193;DHT22;4631;49.296;10.560;2023-09-07T13:05:23;29.60;94.40
9193;DHT22;4631;49.296;10.560;2023-09-07T13:07:49;29.80;93.20
9193;DHT22;4631;49.296;10.560;2023-09-07T13:10:18;30.00;94.40
9193;DHT22;4631;49.296;10.560;2023-09-07T13:12:45;30.20;93.30
9193;DHT22;4631;49.296;10.560;2023-09-07T13:15:12;30.40;93.30
9193;DHT22;4631;49.296;10.560;2023-09-07T13:17:38;30.60;92.30
9193;DHT22;4631;49.296;10.560;2023-09-07T13:20:05;30.80;93.10
9193;DHT22;4631;49.296;10.560;2023-09-07T13:22:32;31.00;93.30
9193;DHT22;4631;49.296;10.560;2023-09-07T13:24:59;31.20;93.10
9193;DHT22;4631;49.296;10.560;2023-09-07T13:27:27;31.20;91.70
9193;DHT22;4631;49.296;10.560;2023-09-07T13:29:54;31.30;91.30
9193;DHT22;4631;49.296;10.560;2023-09-07T13:32:21;31.30;91.50
9193;DHT22;4631;49.296;10.560;2023-09-07T13:34:48;31.30;90.30
9193;DHT22;4631;49.296;10.560;2023-09-07T13:37:15;31.40;90.80
9193;DHT22;4631;49.296;10.560;2023-09-07T13:39:41;31.50;90.20
9193;DHT22;4631;49.296;10.560;2023-09-07T13:42:08;31.60;90.80
9193;DHT22;4631;49.296;10.560;2023-09-07T13:44:36;31.70;90.70
9193;DHT22;4631;49.296;10.560;2023-09-07T13:47:02;31.80;90.50
9193;DHT22;4631;49.296;10.560;2023-09-07T13:49:29;31.80;90.70
9193;DHT22;4631;49.296;10.560;2023-09-07T13:51:56;31.70;90.90
9193;DHT22;4631;49.296;10.560;2023-09-07T13:54:22;31.70;91.50
9193;DHT22;4631;49.296;10.560;2023-09-07T13:56:49;31.80;91.10
9193;DHT22;4631;49.296;10.560;2023-09-07T13:59:15;31.80;90.20
9193;DHT22;4631;49.296;10.560;2023-09-07T14:01:43;31.60;91.00
9193;DHT22;4631;49.296;10.560;2023-09-07T14:04:10;31.50;90.70
9193;DHT22;4631;49.296;10.560;2023-09-07T14:06:37;31.40;91.90
9193;DHT22;4631;49.296;10.560;2023-09-07T14:09:04;31.40;91.00
9193;DHT22;4631;49.296;10.560;2023-09-07T14:11:32;31.40;90.20
9193;DHT22;4631;49.296;10.560;2023-09-07T14:13:58;31.40;90.10
9193;DHT22;4631;49.296;10.560;2023-09-07T14:16:25;31.30;90.40
9193;DHT22;4631;49.296;10.560;2023-09-07T14:18:53;31.30;87.90
9193;DHT22;4631;49.296;10.560;2023-09-07T14:21:20;31.20;89.60
9193;DHT22;4631;49.296;10.560;2023-09-07T14:23:46;31.10;86.80
9193;DHT22;4631;49.296;10.560;2023-09-07T14:26:13;31.10;87.20
9193;DHT22;4631;49.296;10.560;2023-09-07T14:28:39;30.90;84.50
9193;DHT22;4631;49.296;10.560;2023-09-07T14:31:06;30.80;87.90
9193;DHT22;4631;49.296;10.560;2023-09-07T14:33:33;30.80;85.40
9193;DHT22;4631;49.296;10.560;2023-09-07T14:36:05;30.80;86.20
9193;DHT22;4631;49.296;10.560;2023-09-07T14:38:32;30.90;85.00
9193;DHT22;4631;49.296;10.560;2023-09-07T14:41:00;31.00;87.30
9193;DHT22;4631;49.296;10.560;2023-09-07T14:43:26;31.00;83.20
9193;DHT22;4631;49.296;10.560;2023-09-07T14:45:53;31.00;84.00
9193;DHT22;4631;49.296;10.560;2023-09-07T14:48:20;31.10;84.70
9193;DHT22;4631;49.296;10.560;2023-09-07T14:50:46;31.20;85.20
9193;DHT22;4631;49.296;10.560;2023-09-07T14:53:14;31.10;83.30
9193;DHT22;4631;49.296;10.560;2023-09-07T14:55:41;31.00;84.80
9193;DHT22;4631;49.296;10.560;2023-09-07T14:58:07;30.90;86.10
9193;DHT22;4631;49.296;10.560;2023-09-07T15:00:35;31.00;89.10
9193;DHT22;4631;49.296;10.560;2023-09-07T15:03:02;31.10;89.40
9193;DHT22;4631;49.296;10.560;2023-09-07T15:05:29;31.10;88.20
9193;DHT22;4631;49.296;10.560;2023-09-07T15:07:56;31.10;87.70
9193;DHT22;4631;49.296;10.560;2023-09-07T15:10:24;31.10;87.70
9193;DHT22;4631;49.296;10.560;2023-09-07T15:12:51;31.20;85.20
9193;DHT22;4631;49.296;10.560;2023-09-07T15:15:19;31.30;87.20
9193;DHT22;4631;49.296;10.560;2023-09-07T15:17:46;31.30;88.70
9193;DHT22;4631;49.296;10.560;2023-09-07T15:20:13;31.20;87.80
9193;DHT22;4631;49.296;10.560;2023-09-07T15:22:39;31.10;87.20
9193;DHT22;4631;49.296;10.560;2023-09-07T15:25:06;30.90;88.20
9193;DHT22;4631;49.296;10.560;2023-09-07T15:27:34;30.90;89.40
9193;DHT22;4631;49.296;10.560;2023-09-07T15:30:01;30.90;87.70
9193;DHT22;4631;49.296;10.560;2023-09-07T15:32:28;30.90;89.10
9193;DHT22;4631;49.296;10.560;2023-09-07T15:34:55;30.90;90.50
9193;DHT22;4631;49.296;10.560;2023-09-07T15:37:21;30.90;88.90
9193;DHT22;4631;49.296;10.560;2023-09-07T15:39:48;30.80;89.30
9193;DHT22;4631;49.296;10.560;2023-09-07T15:42:15;30.70;90.20
9193;DHT22;4631;49.296;10.560;2023-09-07T15:44:43;30.70;87.50
9193;DHT22;4631;49.296;10.560;2023-09-07T15:47:10;30.70;86.70
9193;DHT22;4631;49.296;10.560;2023-09-07T15:49:38;30.80;87.50
9193;DHT22;4631;49.296;10.560;2023-09-07T15:52:06;30.90;86.00
9193;DHT22;4631;49.296;10.560;2023-09-07T15:54:33;31.00;88.00
9193;DHT22;4631;49.296;10.560;2023-09-07T15:57:01;31.10;87.20
9193;DHT22;4631;49.296;10.560;2023-09-07T15:59:28;31.20;86.90
9193;DHT22;4631;49.296;10.560;2023-09-07T16:01:56;31.20;88.80